sensor_id;sensor_type;location;lat;lon;timestamp;pressure;altitude;pressure_sealevel;temperature;humidity
57234;BME280;43090;52.604;13.318;2023-02-18T00:00:32;100947.06;;;5.95;84.86
57234;BME280;43090;52.604;13.318;2023-02-18T00:03:12;100947.75;;;5.81;85.45
57234;BME280;43090;52.604;13.318;2023-02-18T00:05:51;100947.41;;;5.87;83.52
57234;BME280;43090;52.604;13.318;2023-02-18T00:08:21;100951.25;;;5.81;83.64
57234;BME280;43090;52.604;13.318;2023-02-18T00:14:54;100950.47;;;5.98;86.26
57234;BME280;43090;52.604;13.318;2023-02-18T00:17:23;100943.06;;;5.86;84.60
57234;BME280;43090;52.604;13.318;2023-02-18T00:19:52;100953.34;;;5.75;84.91
57234;BME280;43090;52.604;13.318;2023-02-18T00:22:22;100953.81;;;5.83;85.20
57234;BME280;43090;52.604;13.318;2023-02-18T00:24:56;100944.50;;;5.55;85.58
57234;BME280;43090;52.604;13.318;2023-02-18T00:28:04;100948.88;;;5.56;85.65
57234;BME280;43090;52.604;13.318;2023-02-18T00:30:40;100949.81;;;5.55;86.16
57234;BME280;43090;52.604;13.318;2023-02-18T00:36:41;100944.00;;;5.47;87.33
57234;BME280;43090;52.604;13.318;2023-02-18T00:39:19;100953.81;;;5.45;87.47
57234;BME280;43090;52.604;13.318;2023-02-18T00:41:46;100950.25;;;5.46;87.28
57234;BME280;43090;52.604;13.318;2023-02-18T00:44:24;100950.94;;;5.30;87.22
57234;BME280;43090;52.604;13.318;2023-02-18T00:47:10;100952.56;;;5.34;88.23
57234;BME280;43090;52.604;13.318;2023-02-18T00:49:48;100960.13;;;5.42;88.04
57234;BME280;43090;52.604;13.318;2023-02-18T00:56:45;100974.22;;;5.25;88.11
57234;BME280;43090;52.604;13.318;2023-02-18T00:59:14;100974.63;;;5.35;87.95
57234;BME280;43090;52.604;13.318;2023-02-18T01:01:53;100967.34;;;5.40;88.10
57234;BME280;43090;52.604;13.318;2023-02-18T01:04:57;100965.16;;;5.29;87.70
57234;BME280;43090;52.604;13.318;2023-02-18T01:13:53;100965.78;;;5.15;88.82
57234;BME280;43090;52.604;13.318;2023-02-18T01:16:45;100974.53;;;5.17;89.50
57234;BME280;43090;52.604;13.318;2023-02-18T01:19:27;100971.75;;;5.40;89.87
57234;BME280;43090;52.604;13.318;2023-02-18T01:27:52;100964.72;;;5.20;89.38
57234;BME280;43090;52.604;13.318;2023-02-18T01:30:19;100979.38;;;5.28;91.68
57234;BME280;43090;52.604;13.318;2023-02-18T01:35:38;100971.34;;;5.09;89.17
57234;BME280;43090;52.604;13.318;2023-02-18T01:38:32;100981.03;;;5.31;89.54
57234;BME280;43090;52.604;13.318;2023-02-18T01:41:09;100958.78;;;5.33;89.09
57234;BME280;43090;52.604;13.318;2023-02-18T01:46:38;100964.41;;;5.07;90.09
57234;BME280;43090;52.604;13.318;2023-02-18T01:49:05;100971.59;;;5.24;89.73
57234;BME280;43090;52.604;13.318;2023-02-18T01:59:07;100966.91;;;5.10;90.12
57234;BME280;43090;52.604;13.318;2023-02-18T02:35:27;100981.38;;;5.03;89.43
57234;BME280;43090;52.604;13.318;2023-02-18T02:38:14;100992.66;;;5.08;90.36
57234;BME280;43090;52.604;13.318;2023-02-18T02:44:19;100985.50;;;4.89;89.97
57234;BME280;43090;52.604;13.318;2023-02-18T02:47:26;100984.09;;;5.01;89.95
57234;BME280;43090;52.604;13.318;2023-02-18T02:50:11;100984.19;;;4.99;89.63
57234;BME280;43090;52.604;13.318;2023-02-18T03:02:24;100993.19;;;4.95;89.50
57234;BME280;43090;52.604;13.318;2023-02-18T03:11:05;100997.69;;;4.93;89.61
57234;BME280;43090;52.604;13.318;2023-02-18T03:18:12;100991.53;;;4.93;89.19
57234;BME280;43090;52.604;13.318;2023-02-18T03:20:37;101000.25;;;4.96;89.45
57234;BME280;43090;52.604;13.318;2023-02-18T03:23:30;100994.38;;;4.88;89.90
57234;BME280;43090;52.604;13.318;2023-02-18T03:28:41;100990.63;;;4.94;89.42
57234;BME280;43090;52.604;13.318;2023-02-18T03:45:35;100966.44;;;5.00;88.48
57234;BME280;43090;52.604;13.318;2023-02-18T03:48:11;100975.63;;;4.93;87.38
57234;BME280;43090;52.604;13.318;2023-02-18T04:02:42;100974.78;;;4.92;86.66
57234;BME280;43090;52.604;13.318;2023-02-18T04:05:11;100977.75;;;4.84;86.92
57234;BME280;43090;52.604;13.318;2023-02-18T04:07:50;100979.28;;;4.90;88.17
57234;BME280;43090;52.604;13.318;2023-02-18T04:10:31;100979.69;;;5.02;86.39
57234;BME280;43090;52.604;13.318;2023-02-18T04:13:35;100971.16;;;5.14;86.98
57234;BME280;43090;52.604;13.318;2023-02-18T04:16:14;100984.97;;;4.81;88.83
57234;BME280;43090;52.604;13.318;2023-02-18T04:18:51;100974.28;;;4.82;87.31
57234;BME280;43090;52.604;13.318;2023-02-18T04:21:23;100980.00;;;4.94;88.03
57234;BME280;43090;52.604;13.318;2023-02-18T04:26:55;100987.44;;;4.86;86.82
57234;BME280;43090;52.604;13.318;2023-02-18T04:29:40;100985.91;;;4.80;87.54
57234;BME280;43090;52.604;13.318;2023-02-18T04:32:43;100998.31;;;4.79;87.10
57234;BME280;43090;52.604;13.318;2023-02-18T04:35:10;101001.84;;;5.00;87.12
57234;BME280;43090;52.604;13.318;2023-02-18T04:37:56;101003.56;;;5.02;86.92
57234;BME280;43090;52.604;13.318;2023-02-18T04:40:40;100993.06;;;4.78;85.91
57234;BME280;43090;52.604;13.318;2023-02-18T04:43:12;101000.16;;;4.77;87.18
57234;BME280;43090;52.604;13.318;2023-02-18T04:46:08;101001.16;;;4.75;86.67
57234;BME280;43090;52.604;13.318;2023-02-18T04:48:39;100998.91;;;4.86;86.97
57234;BME280;43090;52.604;13.318;2023-02-18T04:51:09;101003.41;;;4.84;86.03
57234;BME280;43090;52.604;13.318;2023-02-18T04:53:40;101002.72;;;4.79;85.77
57234;BME280;43090;52.604;13.318;2023-02-18T04:56:18;101008.56;;;4.66;85.83
57234;BME280;43090;52.604;13.318;2023-02-18T04:59:07;101013.81;;;4.68;87.39
57234;BME280;43090;52.604;13.318;2023-02-18T05:02:37;101000.38;;;4.73;86.10
57234;BME280;43090;52.604;13.318;2023-02-18T05:05:16;100995.13;;;4.71;85.54
57234;BME280;43090;52.604;13.318;2023-02-18T05:08:06;101006.91;;;4.64;86.16
57234;BME280;43090;52.604;13.318;2023-02-18T05:17:40;101002.22;;;4.71;86.05
57234;BME280;43090;52.604;13.318;2023-02-18T05:24:10;100995.44;;;4.84;85.30
57234;BME280;43090;52.604;13.318;2023-02-18T05:41:08;100984.03;;;5.23;84.20
57234;BME280;43090;52.604;13.318;2023-02-18T05:47:22;100973.59;;;5.18;82.07
57234;BME280;43090;52.604;13.318;2023-02-18T05:53:45;100983.00;;;5.46;82.05
57234;BME280;43090;52.604;13.318;2023-02-18T08:06:12;100908.97;;;6.13;82.75
57234;BME280;43090;52.604;13.318;2023-02-18T08:09:34;100902.66;;;5.97;85.97
57234;BME280;43090;52.604;13.318;2023-02-18T08:18:36;100900.19;;;5.75;90.74
57234;BME280;43090;52.604;13.318;2023-02-18T08:21:09;100885.78;;;5.61;93.71
57234;BME280;43090;52.604;13.318;2023-02-18T08:23:58;100886.50;;;5.65;94.48
57234;BME280;43090;52.604;13.318;2023-02-18T08:26:25;100879.31;;;5.67;95.44
57234;BME280;43090;52.604;13.318;2023-02-18T08:28:54;100881.06;;;5.86;93.82
57234;BME280;43090;52.604;13.318;2023-02-18T08:31:24;100867.22;;;5.79;95.66
57234;BME280;43090;52.604;13.318;2023-02-18T08:33:54;100888.28;;;5.64;96.15
57234;BME280;43090;52.604;13.318;2023-02-18T08:36:34;100868.13;;;5.60;97.01
57234;BME280;43090;52.604;13.318;2023-02-18T08:39:12;100865.03;;;5.87;96.87
57234;BME280;43090;52.604;13.318;2023-02-18T08:45:12;100875.09;;;5.63;96.89
57234;BME280;43090;52.604;13.318;2023-02-18T08:51:20;100862.25;;;5.54;100.00
57234;BME280;43090;52.604;13.318;2023-02-18T08:54:01;100863.38;;;5.67;100.00
57234;BME280;43090;52.604;13.318;2023-02-18T08:56:30;100856.50;;;5.63;100.00
57234;BME280;43090;52.604;13.318;2023-02-18T08:59:30;100856.88;;;5.73;100.00
57234;BME280;43090;52.604;13.318;2023-02-18T09:17:02;100815.44;;;5.88;100.00
57234;BME280;43090;52.604;13.318;2023-02-18T09:22:47;100820.78;;;5.68;100.00
57234;BME280;43090;52.604;13.318;2023-02-18T09:25:25;100815.91;;;5.96;100.00
57234;BME280;43090;52.604;13.318;2023-02-18T09:27:58;100820.56;;;5.73;100.00
57234;BME280;43090;52.604;13.318;2023-02-18T09:30:38;100816.09;;;5.74;100.00
57234;BME280;43090;52.604;13.318;2023-02-18T09:33:05;100813.31;;;5.77;100.00
57234;BME280;43090;52.604;13.318;2023-02-18T09:38:40;100791.59;;;5.86;100.00
57234;BME280;43090;52.604;13.318;2023-02-18T09:44:48;100765.97;;;5.67;100.00
57234;BME280;43090;52.604;13.318;2023-02-18T09:47:39;100757.97;;;5.85;100.00
57234;BME280;43090;52.604;13.318;2023-02-18T09:53:57;100745.66;;;6.02;100.00
57234;BME280;43090;52.604;13.318;2023-02-18T09:56:53;100751.72;;;6.21;100.00
57234;BME280;43090;52.604;13.318;2023-02-18T09:59:20;100742.97;;;6.02;100.00
57234;BME280;43090;52.604;13.318;2023-02-18T10:01:49;100730.16;;;6.10;100.00
57234;BME280;43090;52.604;13.318;2023-02-18T10:04:29;100722.91;;;6.29;100.00
57234;BME280;43090;52.604;13.318;2023-02-18T10:07:17;100714.69;;;6.18;100.00
57234;BME280;43090;52.604;13.318;2023-02-18T10:12:42;100718.66;;;5.92;100.00
57234;BME280;43090;52.604;13.318;2023-02-18T10:15:09;100720.97;;;5.99;100.00
57234;BME280;43090;52.604;13.318;2023-02-18T10:17:42;100720.47;;;6.09;100.00
57234;BME280;43090;52.604;13.318;2023-02-18T10:20:16;100709.00;;;6.24;100.00
57234;BME280;43090;52.604;13.318;2023-02-18T10:22:42;100695.75;;;6.07;100.00
57234;BME280;43090;52.604;13.318;2023-02-18T10:51:25;100584.44;;;6.00;100.00
57234;BME280;43090;52.604;13.318;2023-02-18T10:53:55;100581.38;;;6.08;100.00
57234;BME280;43090;52.604;13.318;2023-02-18T10:59:00;100572.91;;;5.84;100.00
57234;BME280;43090;52.604;13.318;2023-02-18T11:01:30;100557.88;;;6.00;100.00
57234;BME280;43090;52.604;13.318;2023-02-18T11:04:10;100549.09;;;5.82;100.00
57234;BME280;43090;52.604;13.318;2023-02-18T11:06:42;100536.09;;;6.10;100.00
57234;BME280;43090;52.604;13.318;2023-02-18T11:09:25;100531.25;;;6.18;100.00
57234;BME280;43090;52.604;13.318;2023-02-18T11:11:59;100507.19;;;6.36;100.00
57234;BME280;43090;52.604;13.318;2023-02-18T11:15:18;100508.94;;;6.37;100.00
57234;BME280;43090;52.604;13.318;2023-02-18T11:17:33;100494.41;;;5.94;100.00
57234;BME280;43090;52.604;13.318;2023-02-18T11:20:12;100491.38;;;6.18;100.00
57234;BME280;43090;52.604;13.318;2023-02-18T11:22:48;100488.19;;;6.11;100.00
57234;BME280;43090;52.604;13.318;2023-02-18T11:25:31;100472.84;;;6.16;100.00
57234;BME280;43090;52.604;13.318;2023-02-18T11:28:01;100475.22;;;5.89;100.00
57234;BME280;43090;52.604;13.318;2023-02-18T11:35:41;100441.97;;;6.14;100.00
57234;BME280;43090;52.604;13.318;2023-02-18T11:38:22;100450.56;;;6.33;100.00
57234;BME280;43090;52.604;13.318;2023-02-18T11:40:53;100444.00;;;6.25;100.00
57234;BME280;43090;52.604;13.318;2023-02-18T11:43:28;100439.09;;;6.33;100.00
57234;BME280;43090;52.604;13.318;2023-02-18T11:49:10;100413.03;;;6.24;100.00
57234;BME280;43090;52.604;13.318;2023-02-18T11:51:45;100391.38;;;6.15;100.00
57234;BME280;43090;52.604;13.318;2023-02-18T11:57:02;100412.34;;;6.20;100.00
57234;BME280;43090;52.604;13.318;2023-02-18T11:59:31;100399.41;;;6.30;100.00
57234;BME280;43090;52.604;13.318;2023-02-18T12:04:39;100347.44;;;6.24;100.00
57234;BME280;43090;52.604;13.318;2023-02-18T12:07:26;100333.78;;;6.30;100.00
57234;BME280;43090;52.604;13.318;2023-02-18T12:09:59;100355.44;;;6.39;100.00
57234;BME280;43090;52.604;13.318;2023-02-18T12:16:26;100348.91;;;6.59;100.00
57234;BME280;43090;52.604;13.318;2023-02-18T12:19:17;100335.72;;;6.57;100.00
57234;BME280;43090;52.604;13.318;2023-02-18T12:24:52;100326.59;;;6.47;100.00
57234;BME280;43090;52.604;13.318;2023-02-18T13:22:15;100228.09;;;8.51;100.00
57234;BME280;43090;52.604;13.318;2023-02-18T13:24:44;100245.28;;;8.47;100.00
57234;BME280;43090;52.604;13.318;2023-02-18T13:27:24;100219.63;;;8.57;100.00
57234;BME280;43090;52.604;13.318;2023-02-18T13:43:34;100211.84;;;8.67;100.00
57234;BME280;43090;52.604;13.318;2023-02-18T13:55:45;100223.88;;;8.86;100.00
57234;BME280;43090;52.604;13.318;2023-02-18T13:58:21;100211.50;;;8.72;100.00
57234;BME280;43090;52.604;13.318;2023-02-18T14:01:42;100197.84;;;8.76;100.00
57234;BME280;43090;52.604;13.318;2023-02-18T14:09:51;100200.91;;;8.83;100.00
57234;BME280;43090;52.604;13.318;2023-02-18T14:28:34;100214.16;;;8.84;100.00
57234;BME280;43090;52.604;13.318;2023-02-18T14:47:37;100229.63;;;8.92;100.00
57234;BME280;43090;52.604;13.318;2023-02-18T15:01:06;100225.69;;;8.85;100.00
57234;BME280;43090;52.604;13.318;2023-02-18T15:08:51;100223.97;;;8.84;100.00
57234;BME280;43090;52.604;13.318;2023-02-18T15:11:18;100229.75;;;8.78;100.00
57234;BME280;43090;52.604;13.318;2023-02-18T15:13:48;100229.53;;;8.81;100.00
57234;BME280;43090;52.604;13.318;2023-02-18T15:16:25;100253.66;;;8.79;100.00
57234;BME280;43090;52.604;13.318;2023-02-18T15:18:55;100251.34;;;8.75;100.00
57234;BME280;43090;52.604;13.318;2023-02-18T15:21:27;100260.47;;;8.83;100.00
57234;BME280;43090;52.604;13.318;2023-02-18T15:24:01;100282.06;;;8.80;100.00
57234;BME280;43090;52.604;13.318;2023-02-18T15:26:47;100288.06;;;8.84;100.00
57234;BME280;43090;52.604;13.318;2023-02-18T17:09:05;100552.28;;;6.99;100.00
57234;BME280;43090;52.604;13.318;2023-02-18T17:12:20;100564.72;;;6.69;100.00
57234;BME280;43090;52.604;13.318;2023-02-18T17:36:07;100631.59;;;6.62;100.00
57234;BME280;43090;52.604;13.318;2023-02-18T17:46:09;100656.41;;;6.47;100.00
57234;BME280;43090;52.604;13.318;2023-02-18T17:48:40;100639.38;;;6.33;100.00
57234;BME280;43090;52.604;13.318;2023-02-18T17:51:12;100653.97;;;6.26;100.00
57234;BME280;43090;52.604;13.318;2023-02-18T17:53:47;100669.75;;;6.29;100.00
57234;BME280;43090;52.604;13.318;2023-02-18T17:56:15;100673.69;;;6.22;100.00
57234;BME280;43090;52.604;13.318;2023-02-18T17:58:48;100668.19;;;6.25;100.00
57234;BME280;43090;52.604;13.318;2023-02-18T18:01:19;100676.09;;;6.27;100.00
57234;BME280;43090;52.604;13.318;2023-02-18T18:03:51;100672.66;;;6.25;100.00
57234;BME280;43090;52.604;13.318;2023-02-18T18:06:18;100680.13;;;6.18;100.00
57234;BME280;43090;52.604;13.318;2023-02-18T18:08:45;100685.47;;;6.34;100.00
57234;BME280;43090;52.604;13.318;2023-02-18T18:11:16;100683.78;;;6.15;100.00
57234;BME280;43090;52.604;13.318;2023-02-18T18:13:43;100699.78;;;6.31;100.00
57234;BME280;43090;52.604;13.318;2023-02-18T18:16:10;100705.94;;;6.32;100.00
57234;BME280;43090;52.604;13.318;2023-02-18T18:25:48;100722.03;;;6.13;100.00
57234;BME280;43090;52.604;13.318;2023-02-18T18:31:18;100731.25;;;6.23;100.00
57234;BME280;43090;52.604;13.318;2023-02-18T18:33:46;100742.28;;;6.15;100.00
57234;BME280;43090;52.604;13.318;2023-02-18T18:36:16;100728.28;;;5.94;100.00
57234;BME280;43090;52.604;13.318;2023-02-18T18:38:44;100742.97;;;6.02;100.00
57234;BME280;43090;52.604;13.318;2023-02-18T18:41:15;100740.00;;;5.90;100.00
57234;BME280;43090;52.604;13.318;2023-02-18T18:43:41;100746.00;;;5.76;100.00
57234;BME280;43090;52.604;13.318;2023-02-18T18:46:08;100736.56;;;5.88;100.00
57234;BME280;43090;52.604;13.318;2023-02-18T18:48:34;100749.78;;;5.72;100.00
57234;BME280;43090;52.604;13.318;2023-02-18T18:51:01;100746.94;;;5.58;100.00
57234;BME280;43090;52.604;13.318;2023-02-18T18:53:28;100770.63;;;5.80;100.00
57234;BME280;43090;52.604;13.318;2023-02-18T18:56:00;100763.84;;;5.74;100.00
57234;BME280;43090;52.604;13.318;2023-02-18T18:58:27;100766.97;;;5.65;100.00
57234;BME280;43090;52.604;13.318;2023-02-18T19:00:55;100772.78;;;5.54;100.00
57234;BME280;43090;52.604;13.318;2023-02-18T19:03:22;100788.03;;;5.50;100.00
57234;BME280;43090;52.604;13.318;2023-02-18T19:05:49;100786.13;;;5.35;100.00
57234;BME280;43090;52.604;13.318;2023-02-18T19:08:18;100777.63;;;5.46;100.00
57234;BME280;43090;52.604;13.318;2023-02-18T19:10:50;100777.72;;;5.44;100.00
57234;BME280;43090;52.604;13.318;2023-02-18T19:13:27;100784.69;;;5.64;100.00
57234;BME280;43090;52.604;13.318;2023-02-18T19:16:00;100784.19;;;5.39;100.00
57234;BME280;43090;52.604;13.318;2023-02-18T19:18:29;100791.53;;;5.51;100.00
57234;BME280;43090;52.604;13.318;2023-02-18T19:20:58;100802.66;;;5.59;100.00
57234;BME280;43090;52.604;13.318;2023-02-18T19:23:27;100805.00;;;5.65;100.00
57234;BME280;43090;52.604;13.318;2023-02-18T19:25:53;100805.56;;;5.72;100.00
57234;BME280;43090;52.604;13.318;2023-02-18T19:28:19;100802.66;;;5.23;100.00
57234;BME280;43090;52.604;13.318;2023-02-18T19:30:46;100808.56;;;5.47;100.00
57234;BME280;43090;52.604;13.318;2023-02-18T19:33:13;100802.31;;;5.48;100.00
57234;BME280;43090;52.604;13.318;2023-02-18T19:35:40;100813.88;;;5.47;100.00
57234;BME280;43090;52.604;13.318;2023-02-18T19:38:07;100806.88;;;5.63;100.00
57234;BME280;43090;52.604;13.318;2023-02-18T19:40:35;100820.31;;;5.60;100.00
57234;BME280;43090;52.604;13.318;2023-02-18T19:43:02;100823.56;;;5.48;100.00
57234;BME280;43090;52.604;13.318;2023-02-18T19:45:29;100813.03;;;5.46;100.00
57234;BME280;43090;52.604;13.318;2023-02-18T19:47:56;100826.72;;;5.56;100.00
57234;BME280;43090;52.604;13.318;2023-02-18T19:50:23;100830.66;;;5.47;100.00
57234;BME280;43090;52.604;13.318;2023-02-18T19:52:52;100824.44;;;5.66;100.00
57234;BME280;43090;52.604;13.318;2023-02-18T19:55:19;100829.41;;;5.37;100.00
57234;BME280;43090;52.604;13.318;2023-02-18T19:57:46;100833.84;;;5.56;100.00
57234;BME280;43090;52.604;13.318;2023-02-18T20:00:13;100831.00;;;5.59;100.00
57234;BME280;43090;52.604;13.318;2023-02-18T20:02:41;100836.41;;;5.57;100.00
57234;BME280;43090;52.604;13.318;2023-02-18T20:05:22;100840.84;;;5.57;100.00
57234;BME280;43090;52.604;13.318;2023-02-18T20:07:52;100834.72;;;5.37;100.00
57234;BME280;43090;52.604;13.318;2023-02-18T20:10:19;100837.84;;;5.26;100.00
57234;BME280;43090;52.604;13.318;2023-02-18T20:12:49;100844.81;;;5.48;100.00
57234;BME280;43090;52.604;13.318;2023-02-18T20:15:17;100845.19;;;5.40;100.00
57234;BME280;43090;52.604;13.318;2023-02-18T20:17:43;100854.13;;;5.57;100.00
57234;BME280;43090;52.604;13.318;2023-02-18T20:20:10;100856.53;;;5.44;100.00
57234;BME280;43090;52.604;13.318;2023-02-18T20:22:36;100848.03;;;5.36;100.00
57234;BME280;43090;52.604;13.318;2023-02-18T20:25:03;100848.16;;;5.51;100.00
